Martha, Oklahoma
Current Conditions -  °F | °C
As of 5:55 PM on Sunday 23 Nov 2014 (Local Time) from KAXS Reporting Station
Drizzle Drizzle  
Wind Chill: 43°   Ceiling: Unl
Heat Index: 48°   Visibility: 10mi
Dew Point: 38°   Wind: 12mph
Humidity: 68%   Direction: 340°NNW
Pressure: 29.74"   Gusts: NA
Location:  34.73°N, 99.39°W
Report Text: KAXS 232355Z AUTO 34010KT 10SM -DZ SCT008 09/03 A2974 RMK AO2 T00880032 10166 20087
Loading
Personal Weather Stations






























Interactive Weather Map New forecast layout! Learn more

10-Day Weather Forecast

Advertisements
Track Severe Weather on mobile